sensor_id;sensor_type;location;lat;lon;timestamp;temperature;humidity
19734;DHT22;10018;51.230;7.860;2022-12-18T00:02:12;-8.00;99.90
19734;DHT22;10018;51.230;7.860;2022-12-18T00:04:38;-8.00;99.90
19734;DHT22;10018;51.230;7.860;2022-12-18T00:07:03;-8.00;99.90
19734;DHT22;10018;51.230;7.860;2022-12-18T00:09:29;-8.00;99.90
19734;DHT22;10018;51.230;7.860;2022-12-18T00:11:55;-8.10;99.90
19734;DHT22;10018;51.230;7.860;2022-12-18T00:14:22;-8.10;99.90
19734;DHT22;10018;51.230;7.860;2022-12-18T00:16:47;-8.10;99.90
19734;DHT22;10018;51.230;7.860;2022-12-18T00:19:14;-8.10;99.90
19734;DHT22;10018;51.230;7.860;2022-12-18T00:21:39;-8.20;99.90
19734;DHT22;10018;51.230;7.860;2022-12-18T00:24:05;-8.20;99.90
19734;DHT22;10018;51.230;7.860;2022-12-18T00:26:33;-8.20;99.90
19734;DHT22;10018;51.230;7.860;2022-12-18T00:29:00;-8.20;99.90
19734;DHT22;10018;51.230;7.860;2022-12-18T00:31:27;-8.20;99.90
19734;DHT22;10018;51.230;7.860;2022-12-18T00:33:54;-8.20;99.90
19734;DHT22;10018;51.230;7.860;2022-12-18T00:36:22;-8.20;99.90
19734;DHT22;10018;51.230;7.860;2022-12-18T00:38:48;-8.10;99.90
19734;DHT22;10018;51.230;7.860;2022-12-18T00:41:15;-8.20;99.90
19734;DHT22;10018;51.230;7.860;2022-12-18T00:44:02;-8.20;99.90
19734;DHT22;10018;51.230;7.860;2022-12-18T00:46:28;-8.20;99.90
19734;DHT22;10018;51.230;7.860;2022-12-18T00:48:53;-8.30;99.90
19734;DHT22;10018;51.230;7.860;2022-12-18T00:51:19;-8.30;99.90
19734;DHT22;10018;51.230;7.860;2022-12-18T00:53:44;-8.30;99.90
19734;DHT22;10018;51.230;7.860;2022-12-18T00:56:10;-8.30;99.90
19734;DHT22;10018;51.230;7.860;2022-12-18T00:58:35;-8.30;99.90
19734;DHT22;10018;51.230;7.860;2022-12-18T01:01:02;-8.30;99.90
19734;DHT22;10018;51.230;7.860;2022-12-18T01:03:28;-8.30;99.90
19734;DHT22;10018;51.230;7.860;2022-12-18T01:05:54;-8.30;99.90
19734;DHT22;10018;51.230;7.860;2022-12-18T01:08:19;-8.30;99.90
19734;DHT22;10018;51.230;7.860;2022-12-18T01:10:45;-8.30;99.90
19734;DHT22;10018;51.230;7.860;2022-12-18T01:13:10;-8.40;99.90
19734;DHT22;10018;51.230;7.860;2022-12-18T01:15:36;-8.40;99.90
19734;DHT22;10018;51.230;7.860;2022-12-18T01:18:01;-8.40;99.90
19734;DHT22;10018;51.230;7.860;2022-12-18T01:20:27;-8.40;99.90
19734;DHT22;10018;51.230;7.860;2022-12-18T01:22:53;-8.50;99.90
19734;DHT22;10018;51.230;7.860;2022-12-18T01:25:18;-8.40;99.90
19734;DHT22;10018;51.230;7.860;2022-12-18T01:27:44;-8.40;99.90
19734;DHT22;10018;51.230;7.860;2022-12-18T01:30:09;-8.40;99.90
19734;DHT22;10018;51.230;7.860;2022-12-18T01:32:35;-8.40;99.90
19734;DHT22;10018;51.230;7.860;2022-12-18T01:35:01;-8.50;99.90
19734;DHT22;10018;51.230;7.860;2022-12-18T01:37:26;-8.50;99.90
19734;DHT22;10018;51.230;7.860;2022-12-18T01:39:52;-8.60;99.90
19734;DHT22;10018;51.230;7.860;2022-12-18T01:42:19;-8.60;99.90
19734;DHT22;10018;51.230;7.860;2022-12-18T01:45:04;-8.60;99.90
19734;DHT22;10018;51.230;7.860;2022-12-18T01:47:45;-8.60;99.90
19734;DHT22;10018;51.230;7.860;2022-12-18T01:50:38;-8.50;99.90
19734;DHT22;10018;51.230;7.860;2022-12-18T01:53:15;-8.60;99.90
19734;DHT22;10018;51.230;7.860;2022-12-18T01:55:48;-8.60;99.90
19734;DHT22;10018;51.230;7.860;2022-12-18T01:58:14;-8.60;99.90
19734;DHT22;10018;51.230;7.860;2022-12-18T02:00:40;-8.60;99.90
19734;DHT22;10018;51.230;7.860;2022-12-18T02:03:06;-8.60;99.90
19734;DHT22;10018;51.230;7.860;2022-12-18T02:05:48;-8.60;99.90
19734;DHT22;10018;51.230;7.860;2022-12-18T02:16:43;-8.80;99.90
19734;DHT22;10018;51.230;7.860;2022-12-18T02:22:56;-8.80;99.90
19734;DHT22;10018;51.230;7.860;2022-12-18T02:27:53;-8.80;99.90
19734;DHT22;10018;51.230;7.860;2022-12-18T02:30:21;-8.80;99.90
19734;DHT22;10018;51.230;7.860;2022-12-18T02:32:51;-8.80;99.90
19734;DHT22;10018;51.230;7.860;2022-12-18T02:35:22;-8.70;99.90
19734;DHT22;10018;51.230;7.860;2022-12-18T02:37:49;-8.80;99.90
19734;DHT22;10018;51.230;7.860;2022-12-18T02:40:17;-8.80;99.90
19734;DHT22;10018;51.230;7.860;2022-12-18T02:42:43;-8.70;99.90
19734;DHT22;10018;51.230;7.860;2022-12-18T02:45:09;-8.70;99.90
19734;DHT22;10018;51.230;7.860;2022-12-18T02:47:39;-8.70;99.90
19734;DHT22;10018;51.230;7.860;2022-12-18T02:50:20;-8.70;99.90
19734;DHT22;10018;51.230;7.860;2022-12-18T02:53:22;-8.70;99.90
19734;DHT22;10018;51.230;7.860;2022-12-18T02:56:09;-8.70;99.90
19734;DHT22;10018;51.230;7.860;2022-12-18T02:58:56;-8.70;99.90
19734;DHT22;10018;51.230;7.860;2022-12-18T03:01:34;-8.70;99.90
19734;DHT22;10018;51.230;7.860;2022-12-18T03:04:14;-8.80;99.90
19734;DHT22;10018;51.230;7.860;2022-12-18T03:06:44;-8.80;99.90
19734;DHT22;10018;51.230;7.860;2022-12-18T03:09:16;-8.90;99.90
19734;DHT22;10018;51.230;7.860;2022-12-18T03:11:46;-8.90;99.90
19734;DHT22;10018;51.230;7.860;2022-12-18T03:14:34;-8.90;99.90
19734;DHT22;10018;51.230;7.860;2022-12-18T03:17:03;-8.90;99.90
19734;DHT22;10018;51.230;7.860;2022-12-18T03:19:32;-9.00;99.90
19734;DHT22;10018;51.230;7.860;2022-12-18T03:22:00;-9.00;99.90
19734;DHT22;10018;51.230;7.860;2022-12-18T03:24:29;-9.00;99.90
19734;DHT22;10018;51.230;7.860;2022-12-18T03:27:02;-9.00;99.90
19734;DHT22;10018;51.230;7.860;2022-12-18T03:32:42;-9.10;99.90
19734;DHT22;10018;51.230;7.860;2022-12-18T03:35:10;-9.10;99.90
19734;DHT22;10018;51.230;7.860;2022-12-18T03:37:37;-9.10;99.90
19734;DHT22;10018;51.230;7.860;2022-12-18T03:40:04;-9.10;99.90
19734;DHT22;10018;51.230;7.860;2022-12-18T03:42:59;-9.10;99.90
19734;DHT22;10018;51.230;7.860;2022-12-18T03:45:42;-9.00;99.90
19734;DHT22;10018;51.230;7.860;2022-12-18T03:48:21;-9.10;99.90
19734;DHT22;10018;51.230;7.860;2022-12-18T03:51:18;-9.10;99.90
19734;DHT22;10018;51.230;7.860;2022-12-18T03:53:55;-9.10;99.90
19734;DHT22;10018;51.230;7.860;2022-12-18T03:56:25;-9.00;99.90
19734;DHT22;10018;51.230;7.860;2022-12-18T03:58:52;-9.10;99.90
19734;DHT22;10018;51.230;7.860;2022-12-18T04:01:20;-9.10;99.90
19734;DHT22;10018;51.230;7.860;2022-12-18T04:03:49;-9.10;99.90
19734;DHT22;10018;51.230;7.860;2022-12-18T04:06:15;-9.10;99.90
19734;DHT22;10018;51.230;7.860;2022-12-18T04:08:42;-9.00;99.90
19734;DHT22;10018;51.230;7.860;2022-12-18T04:11:08;-8.90;99.90
19734;DHT22;10018;51.230;7.860;2022-12-18T04:13:37;-8.70;99.90
19734;DHT22;10018;51.230;7.860;2022-12-18T04:16:03;-8.60;99.90
19734;DHT22;10018;51.230;7.860;2022-12-18T04:18:30;-8.60;99.90
19734;DHT22;10018;51.230;7.860;2022-12-18T04:20:55;-8.70;99.90
19734;DHT22;10018;51.230;7.860;2022-12-18T04:23:21;-8.70;99.90
19734;DHT22;10018;51.230;7.860;2022-12-18T04:25:47;-8.70;99.90
19734;DHT22;10018;51.230;7.860;2022-12-18T04:28:13;-8.80;99.90
19734;DHT22;10018;51.230;7.860;2022-12-18T04:30:38;-8.80;99.90
19734;DHT22;10018;51.230;7.860;2022-12-18T04:33:07;-8.80;99.90
19734;DHT22;10018;51.230;7.860;2022-12-18T04:35:33;-8.80;99.90
19734;DHT22;10018;51.230;7.860;2022-12-18T04:37:58;-8.90;99.90
19734;DHT22;10018;51.230;7.860;2022-12-18T04:40:24;-8.90;99.90
19734;DHT22;10018;51.230;7.860;2022-12-18T04:42:49;-9.00;99.90
19734;DHT22;10018;51.230;7.860;2022-12-18T04:45:15;-8.90;99.90
19734;DHT22;10018;51.230;7.860;2022-12-18T04:47:40;-9.00;99.90
19734;DHT22;10018;51.230;7.860;2022-12-18T04:50:06;-9.00;99.90
19734;DHT22;10018;51.230;7.860;2022-12-18T04:52:32;-9.00;99.90
19734;DHT22;10018;51.230;7.860;2022-12-18T04:54:57;-9.00;99.90
19734;DHT22;10018;51.230;7.860;2022-12-18T04:57:23;-9.10;99.90
19734;DHT22;10018;51.230;7.860;2022-12-18T04:59:48;-9.10;99.90
19734;DHT22;10018;51.230;7.860;2022-12-18T05:02:14;-9.20;99.90
19734;DHT22;10018;51.230;7.860;2022-12-18T05:04:39;-9.20;99.90
19734;DHT22;10018;51.230;7.860;2022-12-18T05:07:05;-9.20;99.90
19734;DHT22;10018;51.230;7.860;2022-12-18T05:09:30;-9.10;99.90
19734;DHT22;10018;51.230;7.860;2022-12-18T05:11:56;-9.10;99.90
19734;DHT22;10018;51.230;7.860;2022-12-18T05:14:21;-9.00;99.90
19734;DHT22;10018;51.230;7.860;2022-12-18T05:16:47;-9.10;99.90
19734;DHT22;10018;51.230;7.860;2022-12-18T05:19:12;-9.10;99.90
19734;DHT22;10018;51.230;7.860;2022-12-18T05:21:38;-9.10;99.90
19734;DHT22;10018;51.230;7.860;2022-12-18T05:24:04;-9.20;99.90
19734;DHT22;10018;51.230;7.860;2022-12-18T05:26:29;-9.20;99.90
19734;DHT22;10018;51.230;7.860;2022-12-18T05:28:56;-9.20;99.90
19734;DHT22;10018;51.230;7.860;2022-12-18T05:31:22;-9.10;99.90
19734;DHT22;10018;51.230;7.860;2022-12-18T05:33:48;-9.10;99.90
19734;DHT22;10018;51.230;7.860;2022-12-18T05:36:13;-9.00;99.90
19734;DHT22;10018;51.230;7.860;2022-12-18T05:38:39;-9.10;99.90
19734;DHT22;10018;51.230;7.860;2022-12-18T05:41:06;-9.00;99.90
19734;DHT22;10018;51.230;7.860;2022-12-18T05:43:37;-9.10;99.90
19734;DHT22;10018;51.230;7.860;2022-12-18T05:46:08;-9.10;99.90
19734;DHT22;10018;51.230;7.860;2022-12-18T05:48:33;-9.10;99.90
19734;DHT22;10018;51.230;7.860;2022-12-18T05:51:25;-9.20;99.90
19734;DHT22;10018;51.230;7.860;2022-12-18T05:53:51;-9.10;99.90
19734;DHT22;10018;51.230;7.860;2022-12-18T05:56:19;-9.10;99.90
19734;DHT22;10018;51.230;7.860;2022-12-18T05:58:46;-9.10;99.90
19734;DHT22;10018;51.230;7.860;2022-12-18T06:01:15;-9.10;99.90
19734;DHT22;10018;51.230;7.860;2022-12-18T06:03:40;-9.00;99.90
19734;DHT22;10018;51.230;7.860;2022-12-18T06:06:17;-9.00;99.90
19734;DHT22;10018;51.230;7.860;2022-12-18T06:08:43;-9.00;99.90
19734;DHT22;10018;51.230;7.860;2022-12-18T06:11:09;-9.00;99.90
19734;DHT22;10018;51.230;7.860;2022-12-18T06:13:34;-9.00;99.90
19734;DHT22;10018;51.230;7.860;2022-12-18T06:16:05;-8.90;99.90
19734;DHT22;10018;51.230;7.860;2022-12-18T06:18:31;-8.90;99.90
19734;DHT22;10018;51.230;7.860;2022-12-18T06:20:58;-9.00;99.90
19734;DHT22;10018;51.230;7.860;2022-12-18T06:23:24;-9.00;99.90
19734;DHT22;10018;51.230;7.860;2022-12-18T06:25:50;-9.00;99.90
19734;DHT22;10018;51.230;7.860;2022-12-18T06:28:16;-9.00;99.90
19734;DHT22;10018;51.230;7.860;2022-12-18T06:30:46;-9.00;99.90
19734;DHT22;10018;51.230;7.860;2022-12-18T06:33:12;-9.00;99.90
19734;DHT22;10018;51.230;7.860;2022-12-18T06:35:37;-9.00;99.90
19734;DHT22;10018;51.230;7.860;2022-12-18T06:38:03;-9.10;99.90
19734;DHT22;10018;51.230;7.860;2022-12-18T06:40:29;-9.10;99.90
19734;DHT22;10018;51.230;7.860;2022-12-18T06:42:54;-9.20;99.90
19734;DHT22;10018;51.230;7.860;2022-12-18T06:45:20;-9.20;99.90
19734;DHT22;10018;51.230;7.860;2022-12-18T06:47:45;-9.20;99.90
19734;DHT22;10018;51.230;7.860;2022-12-18T06:50:12;-9.20;99.90
19734;DHT22;10018;51.230;7.860;2022-12-18T06:52:38;-9.10;99.90
19734;DHT22;10018;51.230;7.860;2022-12-18T06:55:09;-9.20;99.90
19734;DHT22;10018;51.230;7.860;2022-12-18T06:57:34;-9.20;99.90
19734;DHT22;10018;51.230;7.860;2022-12-18T07:00:00;-9.20;99.90
19734;DHT22;10018;51.230;7.860;2022-12-18T07:02:25;-9.20;99.90
19734;DHT22;10018;51.230;7.860;2022-12-18T07:04:51;-9.20;99.90
19734;DHT22;10018;51.230;7.860;2022-12-18T07:07:17;-9.20;99.90
19734;DHT22;10018;51.230;7.860;2022-12-18T07:09:43;-9.20;99.90
19734;DHT22;10018;51.230;7.860;2022-12-18T07:12:08;-9.20;99.90
19734;DHT22;10018;51.230;7.860;2022-12-18T07:14:34;-9.20;99.90
19734;DHT22;10018;51.230;7.860;2022-12-18T07:16:59;-9.10;99.90
19734;DHT22;10018;51.230;7.860;2022-12-18T07:19:25;-9.00;99.90
19734;DHT22;10018;51.230;7.860;2022-12-18T07:21:51;-8.90;99.90
19734;DHT22;10018;51.230;7.860;2022-12-18T07:24:16;-8.90;99.90
19734;DHT22;10018;51.230;7.860;2022-12-18T07:26:42;-8.80;99.90
19734;DHT22;10018;51.230;7.860;2022-12-18T07:29:07;-8.80;99.90
19734;DHT22;10018;51.230;7.860;2022-12-18T07:31:33;-8.80;99.90
19734;DHT22;10018;51.230;7.860;2022-12-18T07:33:59;-8.80;99.90
19734;DHT22;10018;51.230;7.860;2022-12-18T07:36:24;-8.70;99.90
19734;DHT22;10018;51.230;7.860;2022-12-18T07:38:50;-8.70;99.90
19734;DHT22;10018;51.230;7.860;2022-12-18T07:41:18;-8.70;99.90
19734;DHT22;10018;51.230;7.860;2022-12-18T07:43:44;-8.80;99.90
19734;DHT22;10018;51.230;7.860;2022-12-18T07:46:11;-8.80;99.90
19734;DHT22;10018;51.230;7.860;2022-12-18T07:48:39;-8.80;99.90
19734;DHT22;10018;51.230;7.860;2022-12-18T07:51:06;-8.80;99.90
19734;DHT22;10018;51.230;7.860;2022-12-18T07:53:33;-8.80;99.90
19734;DHT22;10018;51.230;7.860;2022-12-18T07:56:02;-8.80;99.90
19734;DHT22;10018;51.230;7.860;2022-12-18T07:58:29;-8.70;99.90
19734;DHT22;10018;51.230;7.860;2022-12-18T08:01:05;-8.60;99.90
19734;DHT22;10018;51.230;7.860;2022-12-18T08:03:31;-8.60;99.90
19734;DHT22;10018;51.230;7.860;2022-12-18T08:06:00;-8.60;99.90
19734;DHT22;10018;51.230;7.860;2022-12-18T08:08:26;-8.60;99.90
19734;DHT22;10018;51.230;7.860;2022-12-18T08:10:52;-8.50;99.90
19734;DHT22;10018;51.230;7.860;2022-12-18T08:13:18;-8.40;99.90
19734;DHT22;10018;51.230;7.860;2022-12-18T08:15:43;-8.30;99.90
19734;DHT22;10018;51.230;7.860;2022-12-18T08:18:09;-8.20;99.90
19734;DHT22;10018;51.230;7.860;2022-12-18T08:20:34;-8.10;99.90
19734;DHT22;10018;51.230;7.860;2022-12-18T08:23:00;-8.00;99.90
19734;DHT22;10018;51.230;7.860;2022-12-18T08:25:25;-7.90;99.90
19734;DHT22;10018;51.230;7.860;2022-12-18T08:27:51;-7.70;99.90
19734;DHT22;10018;51.230;7.860;2022-12-18T08:30:16;-7.60;99.90
19734;DHT22;10018;51.230;7.860;2022-12-18T08:32:42;-7.50;99.90
19734;DHT22;10018;51.230;7.860;2022-12-18T08:35:08;-7.40;99.90
19734;DHT22;10018;51.230;7.860;2022-12-18T08:37:34;-7.20;99.90
19734;DHT22;10018;51.230;7.860;2022-12-18T08:39:59;-7.00;99.90
19734;DHT22;10018;51.230;7.860;2022-12-18T08:42:25;-6.90;99.90
19734;DHT22;10018;51.230;7.860;2022-12-18T08:45:09;-6.80;99.90
19734;DHT22;10018;51.230;7.860;2022-12-18T08:47:35;-6.70;99.90
19734;DHT22;10018;51.230;7.860;2022-12-18T08:50:00;-6.50;99.90
19734;DHT22;10018;51.230;7.860;2022-12-18T08:52:26;-6.40;99.90
19734;DHT22;10018;51.230;7.860;2022-12-18T08:54:51;-6.30;99.90
19734;DHT22;10018;51.230;7.860;2022-12-18T08:57:17;-6.20;99.90
19734;DHT22;10018;51.230;7.860;2022-12-18T08:59:42;-6.10;99.90
19734;DHT22;10018;51.230;7.860;2022-12-18T09:02:10;-6.00;99.90
19734;DHT22;10018;51.230;7.860;2022-12-18T09:04:36;-5.80;99.90
19734;DHT22;10018;51.230;7.860;2022-12-18T09:07:02;-5.70;99.90
19734;DHT22;10018;51.230;7.860;2022-12-18T09:09:27;-5.60;99.90
19734;DHT22;10018;51.230;7.860;2022-12-18T09:11:53;-5.50;99.90
19734;DHT22;10018;51.230;7.860;2022-12-18T09:14:18;-5.40;99.90
19734;DHT22;10018;51.230;7.860;2022-12-18T09:16:44;-5.30;99.90
19734;DHT22;10018;51.230;7.860;2022-12-18T09:19:09;-5.20;99.90
19734;DHT22;10018;51.230;7.860;2022-12-18T09:21:35;-5.10;99.90
19734;DHT22;10018;51.230;7.860;2022-12-18T09:24:01;-5.00;99.90
19734;DHT22;10018;51.230;7.860;2022-12-18T09:26:27;-4.90;99.90
19734;DHT22;10018;51.230;7.860;2022-12-18T09:28:53;-4.80;99.90
19734;DHT22;10018;51.230;7.860;2022-12-18T09:31:20;-4.70;99.90
19734;DHT22;10018;51.230;7.860;2022-12-18T09:33:46;-4.60;99.90
19734;DHT22;10018;51.230;7.860;2022-12-18T09:36:14;-4.50;99.90
19734;DHT22;10018;51.230;7.860;2022-12-18T09:38:40;-4.40;99.90
19734;DHT22;10018;51.230;7.860;2022-12-18T09:41:36;-4.30;99.90
19734;DHT22;10018;51.230;7.860;2022-12-18T09:44:25;-4.20;99.90
19734;DHT22;10018;51.230;7.860;2022-12-18T09:46:58;-4.10;99.90
19734;DHT22;10018;51.230;7.860;2022-12-18T09:49:27;-4.00;99.90
19734;DHT22;10018;51.230;7.860;2022-12-18T09:52:04;-4.00;99.90
19734;DHT22;10018;51.230;7.860;2022-12-18T09:54:55;-3.90;99.90
19734;DHT22;10018;51.230;7.860;2022-12-18T09:57:23;-3.90;99.90
19734;DHT22;10018;51.230;7.860;2022-12-18T10:00:04;-3.80;99.90
19734;DHT22;10018;51.230;7.860;2022-12-18T10:02:32;-3.60;99.90
19734;DHT22;10018;51.230;7.860;2022-12-18T10:05:10;-3.40;99.90
19734;DHT22;10018;51.230;7.860;2022-12-18T10:07:47;-3.30;99.90
19734;DHT22;10018;51.230;7.860;2022-12-18T10:21:23;-2.80;99.90
19734;DHT22;10018;51.230;7.860;2022-12-18T10:26:36;-2.70;99.90
19734;DHT22;10018;51.230;7.860;2022-12-18T10:29:09;-2.60;99.90
19734;DHT22;10018;51.230;7.860;2022-12-18T10:31:36;-2.60;99.90
19734;DHT22;10018;51.230;7.860;2022-12-18T10:34:01;-2.40;99.90
19734;DHT22;10018;51.230;7.860;2022-12-18T10:36:27;-2.40;99.90
19734;DHT22;10018;51.230;7.860;2022-12-18T10:38:52;-2.20;99.90
19734;DHT22;10018;51.230;7.860;2022-12-18T10:44:18;-1.90;99.90
19734;DHT22;10018;51.230;7.860;2022-12-18T10:46:47;-1.70;99.90
19734;DHT22;10018;51.230;7.860;2022-12-18T10:49:27;-1.50;99.90
19734;DHT22;10018;51.230;7.860;2022-12-18T10:54:48;-1.30;99.90
19734;DHT22;10018;51.230;7.860;2022-12-18T10:59:58;-1.00;99.90
19734;DHT22;10018;51.230;7.860;2022-12-18T11:02:35;-0.90;99.90
19734;DHT22;10018;51.230;7.860;2022-12-18T11:05:01;-0.80;99.90
19734;DHT22;10018;51.230;7.860;2022-12-18T11:07:47;-0.70;99.90
19734;DHT22;10018;51.230;7.860;2022-12-18T11:10:17;-0.50;99.90
19734;DHT22;10018;51.230;7.860;2022-12-18T11:12:43;-0.40;99.90
19734;DHT22;10018;51.230;7.860;2022-12-18T11:15:18;-0.30;99.90
19734;DHT22;10018;51.230;7.860;2022-12-18T11:17:48;-0.20;99.90
19734;DHT22;10018;51.230;7.860;2022-12-18T11:20:33;-0.20;99.90
19734;DHT22;10018;51.230;7.860;2022-12-18T11:23:12;-0.10;99.90
19734;DHT22;10018;51.230;7.860;2022-12-18T11:25:38;0.00;99.90
19734;DHT22;10018;51.230;7.860;2022-12-18T11:33:40;0.20;99.90
19734;DHT22;10018;51.230;7.860;2022-12-18T11:36:08;0.20;99.90
19734;DHT22;10018;51.230;7.860;2022-12-18T11:38:39;0.30;99.90
19734;DHT22;10018;51.230;7.860;2022-12-18T11:41:26;0.40;99.90
19734;DHT22;10018;51.230;7.860;2022-12-18T11:44:26;0.50;99.90
19734;DHT22;10018;51.230;7.860;2022-12-18T11:46:58;0.50;99.90
19734;DHT22;10018;51.230;7.860;2022-12-18T11:49:31;0.60;99.90
19734;DHT22;10018;51.230;7.860;2022-12-18T11:54:42;0.70;99.90
19734;DHT22;10018;51.230;7.860;2022-12-18T12:03:03;0.70;99.90
19734;DHT22;10018;51.230;7.860;2022-12-18T12:08:37;0.80;99.90
19734;DHT22;10018;51.230;7.860;2022-12-18T12:11:25;0.90;99.90
19734;DHT22;10018;51.230;7.860;2022-12-18T12:14:07;0.90;99.90
19734;DHT22;10018;51.230;7.860;2022-12-18T12:19:38;1.00;99.90
19734;DHT22;10018;51.230;7.860;2022-12-18T12:22:24;1.00;99.90
19734;DHT22;10018;51.230;7.860;2022-12-18T12:24:59;1.10;99.90
19734;DHT22;10018;51.230;7.860;2022-12-18T12:28:28;1.10;99.90
19734;DHT22;10018;51.230;7.860;2022-12-18T12:30:20;1.10;99.90
19734;DHT22;10018;51.230;7.860;2022-12-18T12:33:13;1.10;99.90
19734;DHT22;10018;51.230;7.860;2022-12-18T12:38:24;1.20;99.90
19734;DHT22;10018;51.230;7.860;2022-12-18T12:40:59;1.20;99.90
19734;DHT22;10018;51.230;7.860;2022-12-18T12:43:52;1.20;99.90
19734;DHT22;10018;51.230;7.860;2022-12-18T12:46:21;1.20;99.90
19734;DHT22;10018;51.230;7.860;2022-12-18T12:49:00;1.20;99.90
19734;DHT22;10018;51.230;7.860;2022-12-18T12:51:32;1.20;99.90
19734;DHT22;10018;51.230;7.860;2022-12-18T12:54:00;1.30;99.90
19734;DHT22;10018;51.230;7.860;2022-12-18T12:56:45;1.30;99.90
19734;DHT22;10018;51.230;7.860;2022-12-18T12:59:22;1.30;99.90
19734;DHT22;10018;51.230;7.860;2022-12-18T13:02:14;1.30;99.90
19734;DHT22;10018;51.230;7.860;2022-12-18T13:04:56;1.40;99.90
19734;DHT22;10018;51.230;7.860;2022-12-18T13:07:35;1.40;99.90
19734;DHT22;10018;51.230;7.860;2022-12-18T13:13:09;1.40;99.90
19734;DHT22;10018;51.230;7.860;2022-12-18T13:15:41;1.40;99.90
19734;DHT22;10018;51.230;7.860;2022-12-18T13:25:58;1.20;99.90
19734;DHT22;10018;51.230;7.860;2022-12-18T13:31:00;1.30;99.90
19734;DHT22;10018;51.230;7.860;2022-12-18T13:36:02;1.20;99.90
19734;DHT22;10018;51.230;7.860;2022-12-18T13:38:35;1.20;99.90
19734;DHT22;10018;51.230;7.860;2022-12-18T13:41:24;1.30;99.90
19734;DHT22;10018;51.230;7.860;2022-12-18T13:43:49;1.30;99.90
19734;DHT22;10018;51.230;7.860;2022-12-18T13:46:20;1.20;99.90
19734;DHT22;10018;51.230;7.860;2022-12-18T13:49:22;1.20;99.90
19734;DHT22;10018;51.230;7.860;2022-12-18T13:51:51;1.10;99.90
19734;DHT22;10018;51.230;7.860;2022-12-18T13:54:37;1.00;99.90
19734;DHT22;10018;51.230;7.860;2022-12-18T13:57:05;1.00;99.90
19734;DHT22;10018;51.230;7.860;2022-12-18T13:59:38;1.00;99.90
19734;DHT22;10018;51.230;7.860;2022-12-18T14:02:13;1.00;99.90
19734;DHT22;10018;51.230;7.860;2022-12-18T14:04:39;0.90;99.90
19734;DHT22;10018;51.230;7.860;2022-12-18T14:07:17;0.90;99.90
19734;DHT22;10018;51.230;7.860;2022-12-18T14:09:46;0.80;99.90
19734;DHT22;10018;51.230;7.860;2022-12-18T14:12:20;0.80;99.90
19734;DHT22;10018;51.230;7.860;2022-12-18T14:15:15;0.90;99.90
19734;DHT22;10018;51.230;7.860;2022-12-18T14:17:46;0.80;99.90
19734;DHT22;10018;51.230;7.860;2022-12-18T14:20:15;0.80;99.90
19734;DHT22;10018;51.230;7.860;2022-12-18T14:22:46;0.80;99.90
19734;DHT22;10018;51.230;7.860;2022-12-18T14:27:42;0.80;99.90
19734;DHT22;10018;51.230;7.860;2022-12-18T14:35:35;0.70;99.90
19734;DHT22;10018;51.230;7.860;2022-12-18T14:40:43;0.50;99.90
19734;DHT22;10018;51.230;7.860;2022-12-18T14:43:11;0.50;99.90
19734;DHT22;10018;51.230;7.860;2022-12-18T14:45:39;0.40;99.90
19734;DHT22;10018;51.230;7.860;2022-12-18T14:48:21;0.40;99.90
19734;DHT22;10018;51.230;7.860;2022-12-18T14:50:59;0.30;99.90
19734;DHT22;10018;51.230;7.860;2022-12-18T14:53:41;0.30;99.90
19734;DHT22;10018;51.230;7.860;2022-12-18T14:56:28;0.30;99.90
19734;DHT22;10018;51.230;7.860;2022-12-18T14:59:01;0.30;99.90
19734;DHT22;10018;51.230;7.860;2022-12-18T15:01:35;0.20;99.90
19734;DHT22;10018;51.230;7.860;2022-12-18T15:04:04;0.10;99.90
19734;DHT22;10018;51.230;7.860;2022-12-18T15:06:35;0.10;99.90
19734;DHT22;10018;51.230;7.860;2022-12-18T15:09:04;0.10;99.90
19734;DHT22;10018;51.230;7.860;2022-12-18T15:11:43;0.00;99.90
19734;DHT22;10018;51.230;7.860;2022-12-18T15:16:58;0.00;99.90
19734;DHT22;10018;51.230;7.860;2022-12-18T15:19:32;0.00;99.90
19734;DHT22;10018;51.230;7.860;2022-12-18T15:21:59;0.00;99.90
19734;DHT22;10018;51.230;7.860;2022-12-18T15:24:29;0.00;99.90
19734;DHT22;10018;51.230;7.860;2022-12-18T15:26:55;0.00;99.90
19734;DHT22;10018;51.230;7.860;2022-12-18T15:29:22;-0.10;99.90
19734;DHT22;10018;51.230;7.860;2022-12-18T15:32:04;-0.10;99.90
19734;DHT22;10018;51.230;7.860;2022-12-18T15:34:31;-0.20;99.90
19734;DHT22;10018;51.230;7.860;2022-12-18T15:36:57;-0.30;99.90
19734;DHT22;10018;51.230;7.860;2022-12-18T15:39:24;-0.30;99.90
19734;DHT22;10018;51.230;7.860;2022-12-18T15:41:49;-0.30;99.90
19734;DHT22;10018;51.230;7.860;2022-12-18T15:44:38;-0.40;99.90
19734;DHT22;10018;51.230;7.860;2022-12-18T15:47:10;-0.40;99.90
19734;DHT22;10018;51.230;7.860;2022-12-18T15:49:35;-0.50;99.90
19734;DHT22;10018;51.230;7.860;2022-12-18T15:52:01;-0.50;99.90
19734;DHT22;10018;51.230;7.860;2022-12-18T15:54:27;-0.50;99.90
19734;DHT22;10018;51.230;7.860;2022-12-18T15:57:13;-0.50;99.90
19734;DHT22;10018;51.230;7.860;2022-12-18T15:59:48;-0.50;99.90
19734;DHT22;10018;51.230;7.860;2022-12-18T16:02:16;-0.50;99.90
19734;DHT22;10018;51.230;7.860;2022-12-18T16:04:42;-0.40;99.90
19734;DHT22;10018;51.230;7.860;2022-12-18T16:07:08;-0.40;99.90
19734;DHT22;10018;51.230;7.860;2022-12-18T16:09:33;-0.30;99.90
19734;DHT22;10018;51.230;7.860;2022-12-18T16:11:59;-0.20;99.90
19734;DHT22;10018;51.230;7.860;2022-12-18T16:14:27;-0.20;99.90
19734;DHT22;10018;51.230;7.860;2022-12-18T16:16:59;-0.20;99.90
19734;DHT22;10018;51.230;7.860;2022-12-18T16:19:26;-0.20;99.90
19734;DHT22;10018;51.230;7.860;2022-12-18T16:21:53;-0.20;99.90
19734;DHT22;10018;51.230;7.860;2022-12-18T16:24:22;-0.20;99.90
19734;DHT22;10018;51.230;7.860;2022-12-18T16:26:48;-0.20;99.90
19734;DHT22;10018;51.230;7.860;2022-12-18T16:29:16;-0.20;99.90
19734;DHT22;10018;51.230;7.860;2022-12-18T16:31:42;-0.10;99.90
19734;DHT22;10018;51.230;7.860;2022-12-18T16:34:22;-0.10;99.90
19734;DHT22;10018;51.230;7.860;2022-12-18T16:36:49;-0.20;99.90
19734;DHT22;10018;51.230;7.860;2022-12-18T16:39:15;-0.20;99.90
19734;DHT22;10018;51.230;7.860;2022-12-18T16:41:40;-0.20;99.90
19734;DHT22;10018;51.230;7.860;2022-12-18T16:44:06;-0.20;99.90
19734;DHT22;10018;51.230;7.860;2022-12-18T16:46:32;-0.20;99.90
19734;DHT22;10018;51.230;7.860;2022-12-18T16:48:58;-0.20;99.90
19734;DHT22;10018;51.230;7.860;2022-12-18T16:51:25;-0.20;99.90
19734;DHT22;10018;51.230;7.860;2022-12-18T16:53:51;-0.30;99.90
19734;DHT22;10018;51.230;7.860;2022-12-18T16:56:17;-0.40;99.90
19734;DHT22;10018;51.230;7.860;2022-12-18T16:58:42;-0.40;99.90
19734;DHT22;10018;51.230;7.860;2022-12-18T17:01:09;-0.40;99.90
19734;DHT22;10018;51.230;7.860;2022-12-18T17:03:35;-0.30;99.90
19734;DHT22;10018;51.230;7.860;2022-12-18T17:06:03;-0.30;99.90
19734;DHT22;10018;51.230;7.860;2022-12-18T17:08:28;-0.30;99.90
19734;DHT22;10018;51.230;7.860;2022-12-18T17:10:54;-0.30;99.90
19734;DHT22;10018;51.230;7.860;2022-12-18T17:13:19;-0.30;99.90
19734;DHT22;10018;51.230;7.860;2022-12-18T17:15:45;-0.30;99.90
19734;DHT22;10018;51.230;7.860;2022-12-18T17:18:11;-0.30;99.90
19734;DHT22;10018;51.230;7.860;2022-12-18T17:20:36;-0.20;99.90
19734;DHT22;10018;51.230;7.860;2022-12-18T17:23:02;-0.30;99.90
19734;DHT22;10018;51.230;7.860;2022-12-18T17:25:27;-0.30;99.90